Time;durP1;ratioP1;P1;durP2;ratioP2;P2;SDS_P1;SDS_P2;PMS_P1;PMS_P2;Temp;Humidity;BMP_temperature;BMP_pressure;BME280_temperature;BME280_humidity;BME280_pressure;Samples;Min_cycle;Max_cycle;Signal;HPM_P1;HPM_P2
2021/01/30 00:00:30;;;;;;;0.45;0.45;;;7.00;99.90;;;;;;5030654;28;20033;-72
2021/01/30 00:02:57;;;;;;;0.50;0.35;;;7.00;99.90;;;;;;5030707;28;20090;-74
2021/01/30 00:05:23;;;;;;;0.77;0.68;;;7.00;99.90;;;;;;5030838;28;20036;-72
2021/01/30 00:07:49;;;;;;;0.63;0.57;;;7.10;99.90;;;;;;5031103;28;20035;-74
2021/01/30 00:10:17;;;;;;;0.40;0.40;;;7.10;99.90;;;;;;5030084;28;20021;-74
2021/01/30 00:12:42;;;;;;;1.17;0.38;;;7.00;99.90;;;;;;5030256;28;20041;-74
2021/01/30 00:15:14;;;;;;;0.65;0.55;;;7.10;99.90;;;;;;5030698;28;20024;-73
2021/01/30 00:17:39;;;;;;;0.68;0.63;;;7.10;99.90;;;;;;5031076;28;20038;-71
2021/01/30 00:20:07;;;;;;;0.80;0.50;;;7.00;99.90;;;;;;5030201;28;20033;-74
2021/01/30 00:22:33;;;;;;;3.38;0.55;;;7.00;99.90;;;;;;5031098;28;20108;-73
2021/01/30 00:24:58;;;;;;;1.65;0.50;;;7.00;99.90;;;;;;5029937;28;20420;-72
2021/01/30 00:27:24;;;;;;;0.50;0.50;;;7.00;99.90;;;;;;5031004;28;20104;-74
2021/01/30 00:29:50;;;;;;;0.98;0.50;;;7.00;99.90;;;;;;5029444;28;20025;-74
2021/01/30 00:32:19;;;;;;;2.95;0.50;;;6.90;99.90;;;;;;5031161;28;20391;-73
2021/01/30 00:34:45;;;;;;;1.45;0.50;;;6.80;99.90;;;;;;5030158;28;20029;-74
2021/01/30 00:37:18;;;;;;;0.75;0.40;;;6.90;99.90;;;;;;5030768;28;20022;-74
2021/01/30 00:39:44;;;;;;;0.85;0.57;;;6.90;99.90;;;;;;5030357;28;20025;-73
2021/01/30 00:42:12;;;;;;;0.73;0.52;;;6.90;99.90;;;;;;5030561;28;20030;-74
2021/01/30 00:44:38;;;;;;;2.17;0.68;;;6.90;99.90;;;;;;5029792;28;20174;-73
2021/01/30 00:47:05;;;;;;;2.05;0.60;;;6.90;99.90;;;;;;5030332;28;20527;-74
2021/01/30 00:49:30;;;;;;;1.20;0.60;;;6.80;99.90;;;;;;5030601;28;20048;-73
2021/01/30 00:51:56;;;;;;;1.75;0.63;;;6.80;99.90;;;;;;5030751;28;20459;-74
2021/01/30 00:54:22;;;;;;;3.47;1.00;;;6.80;99.90;;;;;;5030518;28;20033;-74
2021/01/30 00:56:52;;;;;;;2.50;0.60;;;6.80;99.90;;;;;;5031101;28;20075;-74
2021/01/30 00:59:18;;;;;;;3.83;0.88;;;6.80;99.90;;;;;;5030885;28;20070;-76
2021/01/30 01:01:44;;;;;;;1.80;0.63;;;6.90;99.90;;;;;;5031167;28;20033;-74
2021/01/30 01:04:10;;;;;;;2.17;0.50;;;6.90;99.90;;;;;;5029157;28;20087;-75
2021/01/30 01:06:37;;;;;;;6.55;1.08;;;7.00;99.90;;;;;;5030726;28;20029;-73
2021/01/30 01:09:05;;;;;;;0.65;0.65;;;6.90;99.90;;;;;;5030759;28;20060;-76
2021/01/30 01:11:31;;;;;;;1.73;0.68;;;6.80;99.90;;;;;;5030981;28;20039;-76
2021/01/30 01:13:57;;;;;;;1.55;0.55;;;6.80;99.90;;;;;;5030402;28;20037;-74
2021/01/30 01:16:22;;;;;;;2.42;0.52;;;6.80;99.90;;;;;;5030933;28;20022;-73
2021/01/30 01:18:48;;;;;;;1.23;0.60;;;6.80;99.90;;;;;;5038359;28;20404;-75
2021/01/30 01:21:14;;;;;;;1.85;0.82;;;6.80;99.90;;;;;;5030610;28;20041;-74
2021/01/30 01:23:43;;;;;;;0.93;0.63;;;6.80;99.90;;;;;;5029687;28;20147;-75
2021/01/30 01:26:14;;;;;;;0.85;0.70;;;6.70;99.90;;;;;;5030023;28;20125;-75
2021/01/30 01:28:40;;;;;;;1.88;0.52;;;6.70;99.90;;;;;;5034973;28;20148;-73
2021/01/30 01:31:07;;;;;;;0.52;0.52;;;6.80;99.90;;;;;;5030785;28;20208;-74
2021/01/30 01:33:33;;;;;;;1.77;0.70;;;6.80;99.90;;;;;;5033336;28;20029;-73
2021/01/30 01:35:59;;;;;;;4.38;0.60;;;6.70;99.90;;;;;;5033395;28;20160;-74
2021/01/30 01:38:26;;;;;;;0.85;0.40;;;6.70;99.90;;;;;;5031834;28;20037;-73
2021/01/30 01:40:52;;;;;;;1.85;0.47;;;6.70;99.90;;;;;;5032415;28;20125;-74
2021/01/30 01:43:21;;;;;;;1.33;0.70;;;6.80;99.90;;;;;;5032331;28;20484;-74
2021/01/30 01:46:18;;;;;;;1.73;0.60;;;6.80;99.90;;;;;;5033009;28;20525;-74
2021/01/30 01:48:49;;;;;;;1.75;0.70;;;6.70;99.90;;;;;;5032954;28;20033;-76
2021/01/30 01:51:25;;;;;;;1.27;0.65;;;6.70;99.90;;;;;;5033010;28;20033;-75
2021/01/30 01:53:50;;;;;;;0.82;0.40;;;6.70;99.90;;;;;;5032184;28;20034;-75
2021/01/30 01:56:28;;;;;;;2.63;0.50;;;6.80;99.90;;;;;;5032652;28;20073;-74
2021/01/30 01:59:01;;;;;;;3.00;0.55;;;6.70;99.90;;;;;;5032779;28;20068;-73
2021/01/30 02:01:30;;;;;;;0.52;0.38;;;6.80;99.90;;;;;;5032821;28;20075;-75
2021/01/30 02:03:57;;;;;;;0.70;0.50;;;6.60;99.90;;;;;;5032325;28;20444;-74
2021/01/30 02:06:24;;;;;;;2.30;0.73;;;6.40;99.90;;;;;;5032630;28;20013;-75
2021/01/30 02:08:50;;;;;;;0.60;0.60;;;6.40;99.90;;;;;;5032717;28;20526;-76
2021/01/30 02:11:16;;;;;;;0.35;0.35;;;6.50;99.90;;;;;;5030940;28;20025;-74
2021/01/30 02:13:48;;;;;;;2.28;0.52;;;6.40;99.90;;;;;;5057347;23;20036;-70
2021/01/30 02:16:32;;;;;;;0.40;0.40;;;6.50;99.90;;;;;;5044269;28;20021;-70
2021/01/30 02:19:16;;;;;;;1.90;0.80;;;6.50;99.90;;;;;;5052358;28;20406;-70
2021/01/30 02:22:00;;;;;;;2.13;0.65;;;6.50;99.90;;;;;;5052374;28;20025;-70
2021/01/30 02:25:03;;;;;;;0.68;0.50;;;6.50;99.90;;;;;;5050424;28;20098;-71
2021/01/30 02:27:55;;;;;;;1.65;0.60;;;6.60;99.90;;;;;;5041572;28;20040;-71
2021/01/30 02:30:36;;;;;;;;;;;6.50;99.90;;;;;;5052688;28;20036;-70
2021/01/30 02:33:29;;;;;;;2.25;0.60;;;6.50;99.90;;;;;;5051551;28;20573;-70
2021/01/30 02:36:00;;;;;;;;;;;6.40;99.90;;;;;;5051184;28;20435;-70
2021/01/30 02:38:28;;;;;;;3.17;0.80;;;6.40;99.90;;;;;;5050738;28;19909;-71
2021/01/30 02:41:01;;;;;;;2.80;1.20;;;6.40;99.90;;;;;;5051029;28;20391;-69
2021/01/30 02:43:34;;;;;;;2.72;0.73;;;6.50;99.90;;;;;;5042404;28;20037;-70
2021/01/30 02:46:06;;;;;;;2.88;1.08;;;6.40;99.90;;;;;;5032567;28;20033;-70
2021/01/30 02:48:43;;;;;;;3.40;0.80;;;6.40;99.90;;;;;;5032148;28;20040;-71
2021/01/30 02:51:12;;;;;;;2.78;0.60;;;6.40;99.90;;;;;;5032082;28;20033;-70
2021/01/30 02:53:45;;;;;;;1.02;0.73;;;6.50;99.90;;;;;;5031065;28;20028;-71
2021/01/30 02:56:13;;;;;;;1.17;0.60;;;6.50;99.90;;;;;;5031802;28;20091;-71
2021/01/30 02:58:43;;;;;;;4.68;0.88;;;6.60;99.90;;;;;;5031662;28;20026;-70
2021/01/30 03:01:10;;;;;;;2.90;0.52;;;6.50;99.90;;;;;;5031781;28;20029;-71
2021/01/30 03:03:36;;;;;;;2.17;0.50;;;6.60;99.90;;;;;;5032270;28;20022;-70
2021/01/30 03:06:07;;;;;;;0.85;0.47;;;6.60;99.90;;;;;;5031660;28;20064;-71
2021/01/30 03:08:50;;;;;;;0.65;0.40;;;6.60;99.90;;;;;;5031980;28;20434;-70
2021/01/30 03:11:24;;;;;;;0.75;0.63;;;6.70;99.90;;;;;;5031626;28;20036;-71
2021/01/30 03:14:15;;;;;;;0.45;0.35;;;6.70;99.90;;;;;;5039751;28;20719;-70
2021/01/30 03:16:41;;;;;;;0.82;0.30;;;6.60;99.90;;;;;;5031611;28;20018;-70
2021/01/30 03:19:15;;;;;;;0.60;0.60;;;6.60;99.90;;;;;;5031378;28;20021;-69
2021/01/30 03:21:42;;;;;;;0.55;0.47;;;6.60;99.90;;;;;;5031504;28;20475;-70
2021/01/30 03:24:09;;;;;;;2.30;0.47;;;6.60;99.90;;;;;;5031480;28;20463;-70
2021/01/30 03:26:41;;;;;;;0.75;0.47;;;6.60;99.90;;;;;;5032388;28;20021;-70
2021/01/30 03:29:08;;;;;;;;;;;6.50;99.90;;;;;;5032743;28;20025;-70
2021/01/30 03:31:34;;;;;;;2.03;0.40;;;6.50;99.90;;;;;;5032307;28;19905;-71
2021/01/30 03:34:00;;;;;;;0.60;0.30;;;6.50;99.90;;;;;;5031400;28;20025;-70
2021/01/30 03:36:26;;;;;;;0.43;0.40;;;6.60;99.90;;;;;;5032121;28;20032;-69
2021/01/30 03:38:51;;;;;;;0.30;0.30;;;6.50;99.90;;;;;;5031214;28;20108;-70
2021/01/30 03:41:17;;;;;;;0.30;0.30;;;6.60;99.90;;;;;;5032181;28;20053;-71
2021/01/30 03:43:42;;;;;;;1.98;0.30;;;6.60;99.90;;;;;;5050496;28;20025;-70
2021/01/30 03:46:08;;;;;;;1.50;0.50;;;6.60;99.90;;;;;;5051875;28;20025;-71
2021/01/30 03:48:34;;;;;;;1.85;0.30;;;6.70;99.90;;;;;;5050670;28;20029;-70
2021/01/30 03:50:59;;;;;;;0.52;0.30;;;6.70;99.90;;;;;;5051770;28;20021;-69
2021/01/30 03:53:25;;;;;;;2.30;0.60;;;6.70;99.90;;;;;;5049719;28;20482;-71
2021/01/30 03:55:51;;;;;;;1.65;0.60;;;6.70;99.90;;;;;;5051478;28;20029;-70
2021/01/30 03:58:16;;;;;;;1.40;0.50;;;6.90;99.90;;;;;;5051533;28;20021;-71
2021/01/30 04:00:42;;;;;;;2.10;0.38;;;6.60;99.90;;;;;;5050384;28;20056;-70
2021/01/30 04:03:08;;;;;;;2.80;0.90;;;6.70;99.90;;;;;;5050740;28;20487;-70
2021/01/30 04:05:33;;;;;;;2.00;0.52;;;6.60;99.90;;;;;;5051689;28;20047;-70
2021/01/30 04:08:00;;;;;;;2.05;0.60;;;6.70;99.90;;;;;;5051713;28;20112;-69
2021/01/30 04:10:33;;;;;;;1.40;0.32;;;6.60;99.90;;;;;;5038131;28;20450;-70
2021/01/30 04:13:00;;;;;;;3.70;0.68;;;6.60;99.90;;;;;;5043997;28;20116;-70
2021/01/30 04:15:33;;;;;;;3.45;0.70;;;6.60;99.90;;;;;;5051461;28;20114;-70
2021/01/30 04:17:58;;;;;;;3.65;0.80;;;6.50;99.90;;;;;;5051416;28;20031;-69
2021/01/30 04:20:25;;;;;;;1.63;0.60;;;6.50;99.90;;;;;;5051403;28;20099;-71
2021/01/30 04:22:51;;;;;;;5.15;1.17;;;6.50;99.90;;;;;;5050629;28;20032;-70
2021/01/30 04:25:19;;;;;;;1.00;0.55;;;6.60;99.90;;;;;;5051302;28;20147;-70
2021/01/30 04:27:45;;;;;;;6.88;1.02;;;6.50;99.90;;;;;;5051340;28;20033;-69
2021/01/30 04:30:14;;;;;;;4.38;1.00;;;6.50;99.90;;;;;;5051010;28;20395;-70
2021/01/30 04:32:40;;;;;;;1.52;0.70;;;6.40;99.90;;;;;;5050635;28;20032;-69
2021/01/30 04:35:09;;;;;;;8.48;1.42;;;6.50;99.90;;;;;;5051416;28;20021;-71
2021/01/30 04:37:35;;;;;;;6.65;0.98;;;6.50;99.90;;;;;;5051582;28;20021;-70
2021/01/30 04:40:01;;;;;;;4.55;1.13;;;6.40;99.90;;;;;;5041300;28;20048;-70
2021/01/30 04:42:36;;;;;;;4.68;1.27;;;6.40;99.90;;;;;;5040195;28;20395;-69
2021/01/30 04:45:14;;;;;;;3.65;1.27;;;6.60;99.90;;;;;;5050801;28;20505;-70
2021/01/30 04:47:42;;;;;;;4.60;1.20;;;6.50;99.90;;;;;;5051272;28;20033;-69
2021/01/30 04:50:23;;;;;;;7.20;1.02;;;6.50;99.90;;;;;;5050962;28;20029;-69
2021/01/30 04:52:56;;;;;;;4.05;1.08;;;6.50;99.90;;;;;;5050353;28;20025;-70
2021/01/30 04:55:45;;;;;;;8.45;1.88;;;6.40;99.90;;;;;;5051006;28;20104;-71
2021/01/30 04:58:19;;;;;;;6.70;1.20;;;6.40;99.90;;;;;;5050059;28;20021;-71
2021/01/30 05:00:51;;;;;;;8.60;1.25;;;6.40;99.90;;;;;;5051066;28;20033;-70
2021/01/30 05:03:46;;;;;;;10.43;1.38;;;6.40;99.90;;;;;;5050222;28;20098;-71
2021/01/30 05:06:20;;;;;;;10.30;1.63;;;6.40;99.90;;;;;;5051788;28;20033;-71
2021/01/30 05:08:50;;;;;;;6.45;1.48;;;6.40;99.90;;;;;;5054968;28;20032;-70
2021/01/30 05:11:20;;;;;;;6.78;1.33;;;6.40;99.90;;;;;;5034759;28;20116;-70
2021/01/30 05:14:14;;;;;;;7.97;1.55;;;6.30;99.90;;;;;;5053646;28;20029;-70
2021/01/30 05:17:17;;;;;;;9.57;1.40;;;6.30;99.90;;;;;;5054491;28;20071;-70
2021/01/30 05:19:49;;;;;;;4.07;1.50;;;6.20;99.90;;;;;;5052791;28;20041;-71
2021/01/30 05:22:15;;;;;;;4.47;1.40;;;6.10;99.90;;;;;;5054434;28;20063;-71
2021/01/30 05:24:44;;;;;;;5.97;1.50;;;6.10;99.90;;;;;;5053728;28;20264;-72
2021/01/30 05:27:28;;;;;;;6.50;1.40;;;6.10;99.90;;;;;;5055232;28;20020;-70
2021/01/30 05:30:09;;;;;;;9.02;1.40;;;6.10;99.90;;;;;;5055184;28;20028;-70
2021/01/30 05:32:56;;;;;;;8.35;1.10;;;6.10;99.90;;;;;;5054240;28;20021;-71
2021/01/30 05:35:26;;;;;;;7.75;1.55;;;6.00;99.90;;;;;;5054390;28;20021;-70
2021/01/30 05:37:59;;;;;;;6.63;1.35;;;6.00;99.90;;;;;;5054350;28;20059;-69
2021/01/30 05:40:47;;;;;;;8.02;1.52;;;5.90;99.90;;;;;;5041263;28;20030;-72
2021/01/30 05:43:57;;;;;;;12.18;1.67;;;6.00;99.90;;;;;;5048709;28;20057;-73
2021/01/30 05:46:28;;;;;;;7.28;1.70;;;6.00;99.90;;;;;;4992527;28;20447;-74
2021/01/30 05:48:56;;;;;;;9.15;1.73;;;6.00;99.90;;;;;;4993021;28;20033;-73
2021/01/30 05:51:28;;;;;;;9.10;1.67;;;5.90;99.90;;;;;;5027063;28;20041;-74
2021/01/30 05:53:54;;;;;;;10.35;1.20;;;5.90;99.90;;;;;;5053409;28;20395;-73
2021/01/30 05:56:19;;;;;;;12.90;2.13;;;5.90;99.90;;;;;;5052813;28;20024;-73
2021/01/30 05:58:47;;;;;;;7.45;1.70;;;5.90;99.90;;;;;;5052486;28;20118;-73
2021/01/30 06:01:15;;;;;;;6.93;1.35;;;5.90;99.90;;;;;;5054089;28;20021;-73
2021/01/30 06:04:01;;;;;;;11.18;1.60;;;5.90;99.90;;;;;;5053151;28;20025;-73
2021/01/30 06:06:52;;;;;;;10.95;1.90;;;5.90;99.90;;;;;;5052505;28;20025;-74
2021/01/30 06:09:36;;;;;;;13.82;2.85;;;6.00;99.90;;;;;;5048108;28;20033;-73
2021/01/30 06:12:16;;;;;;;11.90;2.05;;;5.90;99.90;;;;;;5028554;28;20029;-76
2021/01/30 06:14:41;;;;;;;8.45;2.10;;;6.00;99.90;;;;;;5031144;28;20029;-77
2021/01/30 06:17:15;;;;;;;14.35;2.15;;;6.00;99.90;;;;;;5039482;28;20025;-76
2021/01/30 06:19:41;;;;;;;10.15;2.10;;;6.00;99.90;;;;;;5038602;28;20160;-76
2021/01/30 06:22:12;;;;;;;12.00;1.88;;;6.10;99.90;;;;;;5035981;28;20061;-75
2021/01/30 06:24:44;;;;;;;12.52;1.70;;;6.00;99.90;;;;;;5034502;28;20053;-76
2021/01/30 06:27:23;;;;;;;7.82;1.80;;;6.10;99.90;;;;;;5037374;28;20498;-76
2021/01/30 06:29:57;;;;;;;12.10;2.22;;;6.10;99.90;;;;;;5035539;28;20483;-76
2021/01/30 06:32:34;;;;;;;12.07;1.80;;;6.10;99.90;;;;;;5033449;28;20032;-77
2021/01/30 06:35:06;;;;;;;13.30;2.47;;;6.10;99.90;;;;;;5033934;28;20018;-76
2021/01/30 06:37:42;;;;;;;13.97;2.17;;;6.20;99.90;;;;;;5034969;28;20018;-76
2021/01/30 06:40:27;;;;;;;15.07;2.25;;;6.10;99.90;;;;;;5035343;28;20263;-75
2021/01/30 06:43:01;;;;;;;15.50;2.28;;;6.10;99.90;;;;;;5046087;28;20059;-75
2021/01/30 06:45:40;;;;;;;15.18;2.53;;;6.10;99.90;;;;;;5055436;28;20033;-77
2021/01/30 06:48:08;;;;;;;16.25;2.80;;;6.20;99.90;;;;;;5057105;28;20487;-70
2021/01/30 06:50:39;;;;;;;11.25;2.10;;;6.00;99.90;;;;;;5052840;28;20025;-66
2021/01/30 06:53:12;;;;;;;15.57;2.20;;;6.30;99.90;;;;;;5051741;28;20021;-66
2021/01/30 06:55:37;;;;;;;10.45;2.05;;;7.30;99.90;;;;;;5033508;28;20032;-69
2021/01/30 06:58:04;;;;;;;12.45;2.75;;;7.60;99.90;;;;;;5033296;28;20017;-69
2021/01/30 07:00:34;;;;;;;10.15;2.03;;;7.30;99.90;;;;;;5032602;28;20021;-68
2021/01/30 07:03:22;;;;;;;5.75;2.10;;;7.50;99.90;;;;;;5032290;28;20022;-68
2021/01/30 07:06:19;;;;;;;8.38;2.30;;;7.30;99.90;;;;;;5032098;28;20064;-69
2021/01/30 07:08:53;;;;;;;9.20;1.92;;;7.00;99.90;;;;;;5031567;28;20109;-69
2021/01/30 07:11:33;;;;;;;8.30;1.92;;;6.80;99.90;;;;;;5032762;28;20423;-69
2021/01/30 07:14:35;;;;;;;5.60;1.88;;;6.70;99.90;;;;;;5013640;28;20026;-70
2021/01/30 07:17:14;;;;;;;12.48;2.13;;;6.50;99.90;;;;;;5031838;28;20047;-70
2021/01/30 07:19:58;;;;;;;11.35;2.10;;;6.40;99.90;;;;;;5031908;28;20476;-70
2021/01/30 07:22:36;;;;;;;11.13;2.10;;;6.20;99.90;;;;;;5033942;28;20029;-69
2021/01/30 07:25:16;;;;;;;12.27;2.78;;;6.20;99.90;;;;;;5033980;28;20033;-69
2021/01/30 07:27:47;;;;;;;21.25;4.05;;;6.10;99.90;;;;;;5032167;28;20034;-70
2021/01/30 07:31:05;;;;;;;7.10;2.08;;;6.10;99.90;;;;;;5031864;28;20025;-68
2021/01/30 07:33:48;;;;;;;12.93;3.35;;;6.10;99.90;;;;;;4978371;28;20130;-69
2021/01/30 07:36:53;;;;;;;12.25;2.63;;;6.10;99.90;;;;;;5011682;28;20025;-69
2021/01/30 07:39:27;;;;;;;10.30;2.65;;;6.00;99.90;;;;;;4996509;28;20037;-69
2021/01/30 07:41:59;;;;;;;8.13;2.80;;;6.10;99.90;;;;;;5020882;28;20025;-68
2021/01/30 07:44:50;;;;;;;8.23;2.20;;;6.20;99.90;;;;;;5050959;28;20075;-69
2021/01/30 07:47:29;;;;;;;13.65;3.00;;;6.20;99.90;;;;;;5051279;28;20063;-68
2021/01/30 07:50:01;;;;;;;14.65;3.50;;;6.20;99.90;;;;;;5050374;28;20032;-68
2021/01/30 07:52:31;;;;;;;15.90;4.10;;;6.30;99.90;;;;;;5051613;28;20121;-69
2021/01/30 07:54:59;;;;;;;11.77;5.20;;;6.30;99.90;;;;;;5049737;28;20062;-68
2021/01/30 07:57:43;;;;;;;13.10;6.45;;;6.40;99.90;;;;;;5051656;28;20029;-68
2021/01/30 08:00:23;;;;;;;18.20;8.02;;;6.40;99.90;;;;;;5052144;28;20400;-67
2021/01/30 08:02:58;;;;;;;16.80;8.15;;;6.40;99.90;;;;;;5051898;28;20039;-69
2021/01/30 08:05:44;;;;;;;18.73;8.75;;;6.50;99.90;;;;;;5038383;28;20025;-72
2021/01/30 08:08:35;;;;;;;19.02;7.22;;;6.50;99.90;;;;;;5033004;28;20021;-71
2021/01/30 08:11:07;;;;;;;26.05;10.80;;;6.60;99.90;;;;;;5033873;28;20037;-71
2021/01/30 08:13:42;;;;;;;30.95;13.52;;;6.50;99.90;;;;;;5049205;28;20029;-71
2021/01/30 08:16:33;;;;;;;29.15;15.20;;;6.60;99.90;;;;;;5051736;28;20017;-70
2021/01/30 08:19:05;;;;;;;25.77;12.25;;;6.50;99.90;;;;;;5045637;28;20606;-71
2021/01/30 08:21:43;;;;;;;25.00;10.30;;;6.50;99.90;;;;;;5031401;28;20029;-72
2021/01/30 08:24:37;;;;;;;34.13;9.98;;;6.50;99.90;;;;;;5029921;28;20049;-69
2021/01/30 08:27:15;;;;;;;23.75;8.18;;;6.60;99.90;;;;;;5031457;28;20030;-70
2021/01/30 08:29:47;;;;;;;17.17;4.80;;;6.70;99.90;;;;;;5030595;28;20156;-70
2021/01/30 08:32:25;;;;;;;14.90;4.25;;;6.70;99.90;;;;;;5031322;28;20026;-70
2021/01/30 08:34:56;;;;;;;11.00;3.13;;;6.80;99.90;;;;;;5029524;28;20021;-71
2021/01/30 08:37:25;;;;;;;11.57;3.47;;;6.90;99.90;;;;;;5031452;28;20426;-72
2021/01/30 08:40:13;;;;;;;9.68;3.00;;;7.00;99.90;;;;;;5030195;28;20052;-72
2021/01/30 08:43:01;;;;;;;19.48;3.83;;;7.00;99.90;;;;;;5045325;28;20083;-72
2021/01/30 08:45:31;;;;;;;13.93;2.47;;;7.00;99.90;;;;;;5055202;28;20025;-70
2021/01/30 08:48:26;;;;;;;10.88;2.90;;;7.00;99.90;;;;;;5055719;28;20458;-70
2021/01/30 08:50:55;;;;;;;9.90;2.90;;;7.10;99.90;;;;;;5070700;28;20044;-70
2021/01/30 08:53:23;;;;;;;12.65;3.63;;;7.20;99.90;;;;;;5055945;28;20023;-73
2021/01/30 08:56:02;;;;;;;11.90;3.53;;;7.20;99.90;;;;;;5067556;28;20017;-70
2021/01/30 08:58:37;;;;;;;15.75;5.00;;;7.20;99.90;;;;;;5053818;28;20490;-70
2021/01/30 09:01:05;;;;;;;7.10;3.65;;;7.30;99.90;;;;;;5055229;28;20627;-71
2021/01/30 09:03:40;;;;;;;11.82;3.67;;;7.50;99.90;;;;;;5054115;28;20102;-70
2021/01/30 09:06:08;;;;;;;13.43;3.08;;;7.50;99.90;;;;;;5054900;28;20364;-69
2021/01/30 09:08:38;;;;;;;10.75;2.50;;;7.50;99.90;;;;;;5038300;28;20087;-71
2021/01/30 09:11:40;;;;;;;13.80;3.20;;;7.60;99.90;;;;;;5034758;28;20395;-71
2021/01/30 09:14:14;;;;;;;16.13;3.20;;;7.70;99.90;;;;;;5053627;28;20419;-70
2021/01/30 09:16:58;;;;;;;9.80;2.67;;;7.80;99.90;;;;;;5054677;28;20025;-71
2021/01/30 09:19:26;;;;;;;12.02;3.40;;;7.90;99.90;;;;;;5054564;28;20794;-75
2021/01/30 09:22:31;;;;;;;17.77;2.65;;;7.90;99.90;;;;;;5054607;28;20036;-71
2021/01/30 09:25:02;;;;;;;14.23;2.65;;;7.90;99.90;;;;;;5030059;28;20048;-74
2021/01/30 09:27:31;;;;;;;18.20;3.20;;;7.90;99.90;;;;;;5054451;28;20021;-75
2021/01/30 09:30:13;;;;;;;10.95;2.50;;;8.00;99.90;;;;;;5052718;28;20419;-74
2021/01/30 09:32:47;;;;;;;12.02;2.92;;;8.00;99.90;;;;;;5053938;28;20702;-76
2021/01/30 09:35:38;;;;;;;9.80;2.70;;;8.10;99.90;;;;;;5052970;28;20029;-74
2021/01/30 09:38:27;;;;;;;12.60;2.70;;;8.20;99.90;;;;;;5054335;28;20494;-75
2021/01/30 09:41:13;;;;;;;11.00;2.88;;;8.30;99.90;;;;;;5037882;28;20108;-74
2021/01/30 09:43:39;;;;;;;10.93;3.22;;;8.30;99.90;;;;;;5052785;28;20036;-76
2021/01/30 09:46:11;;;;;;;7.00;2.47;;;8.40;99.90;;;;;;5054371;28;20503;-76
2021/01/30 09:48:38;;;;;;;16.50;2.85;;;8.40;99.90;;;;;;5052648;28;20021;-75
2021/01/30 09:51:06;;;;;;;13.15;2.38;;;8.30;99.90;;;;;;5033890;28;20109;-74
2021/01/30 09:53:49;;;;;;;11.15;2.72;;;8.40;99.90;;;;;;5032664;28;20039;-71
2021/01/30 09:56:17;;;;;;;13.70;3.05;;;8.50;99.90;;;;;;5034093;28;20171;-69
2021/01/30 09:58:50;;;;;;;11.48;3.67;;;8.60;99.90;;;;;;5034050;28;20022;-71
2021/01/30 10:01:25;;;;;;;11.73;2.92;;;8.60;99.90;;;;;;5031356;28;20025;-72
2021/01/30 10:03:52;;;;;;;12.15;3.60;;;8.70;99.90;;;;;;5034098;28;20021;-76
2021/01/30 10:06:29;;;;;;;14.73;3.30;;;8.90;99.90;;;;;;5034907;28;20032;-73
2021/01/30 10:09:07;;;;;;;16.55;4.15;;;8.80;99.90;;;;;;5034092;28;20117;-74
2021/01/30 10:11:35;;;;;;;18.52;4.45;;;9.10;99.90;;;;;;5035548;28;20034;-74
2021/01/30 10:14:01;;;;;;;12.95;3.60;;;9.00;99.90;;;;;;5052787;28;20036;-74
2021/01/30 10:16:28;;;;;;;9.13;2.38;;;9.10;99.90;;;;;;5053461;28;20017;-74
2021/01/30 10:19:08;;;;;;;11.80;2.42;;;9.20;99.90;;;;;;5051008;28;20476;-70
2021/01/30 10:21:39;;;;;;;17.92;2.85;;;9.30;99.90;;;;;;5033602;28;20487;-69
2021/01/30 10:24:31;;;;;;;10.93;2.88;;;9.10;99.90;;;;;;5032381;28;20026;-70
2021/01/30 10:27:14;;;;;;;13.38;2.72;;;9.20;99.90;;;;;;5033205;28;20076;-70
2021/01/30 10:29:40;;;;;;;14.85;2.50;;;9.30;99.90;;;;;;5033624;28;20025;-70
2021/01/30 10:32:20;;;;;;;13.68;2.60;;;9.00;99.90;;;;;;5033198;28;20022;-70
2021/01/30 10:34:48;;;;;;;15.95;3.13;;;8.90;99.90;;;;;;5032383;28;20026;-69
2021/01/30 10:37:21;;;;;;;11.60;3.00;;;8.80;99.90;;;;;;5034417;28;20029;-70
2021/01/30 10:39:56;;;;;;;14.32;3.13;;;8.80;99.90;;;;;;5032710;28;20024;-70
2021/01/30 10:42:25;;;;;;;11.68;2.88;;;8.70;99.90;;;;;;5041265;28;20029;-69
2021/01/30 10:45:04;;;;;;;11.60;2.33;;;8.90;99.90;;;;;;5052635;28;20483;-71
2021/01/30 10:47:30;;;;;;;10.18;2.53;;;8.70;99.90;;;;;;5054184;28;20033;-70
2021/01/30 10:50:09;;;;;;;19.48;4.53;;;8.60;99.90;;;;;;5053220;28;20063;-70
2021/01/30 10:52:35;;;;;;;16.15;4.82;;;8.90;99.90;;;;;;5052166;28;20018;-68
2021/01/30 10:55:28;;;;;;;14.10;2.75;;;9.00;99.90;;;;;;5051785;28;20059;-70
2021/01/30 10:58:25;;;;;;;12.60;2.83;;;8.90;99.90;;;;;;5052834;28;20070;-68
2021/01/30 11:01:08;;;;;;;17.00;6.82;;;8.60;99.90;;;;;;5052894;28;20044;-70
2021/01/30 11:03:53;;;;;;;14.50;4.68;;;8.60;99.90;;;;;;5050909;28;20035;-70
2021/01/30 11:06:31;;;;;;;15.32;2.42;;;8.40;99.90;;;;;;5052850;28;20119;-70
2021/01/30 11:09:21;;;;;;;14.25;2.42;;;8.20;99.90;;;;;;5034537;28;20025;-70
2021/01/30 11:11:49;;;;;;;18.15;5.75;;;8.50;99.90;;;;;;5036709;28;20085;-70
2021/01/30 11:14:35;;;;;;;21.08;9.20;;;8.80;99.90;;;;;;5051657;28;20036;-69
2021/01/30 11:17:03;;;;;;;15.07;3.67;;;9.00;99.90;;;;;;5052875;28;20069;-71
2021/01/30 11:19:31;;;;;;;18.20;4.85;;;9.10;99.90;;;;;;5032712;28;20033;-72
2021/01/30 11:22:06;;;;;;;8.05;2.97;;;9.00;99.90;;;;;;5032991;28;20021;-71
2021/01/30 11:24:35;;;;;;;11.98;2.38;;;9.30;99.90;;;;;;5030843;28;20033;-72
2021/01/30 11:27:02;;;;;;;8.57;2.05;;;9.20;99.90;;;;;;5031875;28;20668;-70
2021/01/30 11:29:43;;;;;;;9.88;2.17;;;9.10;99.90;;;;;;5032633;28;20018;-70
2021/01/30 11:32:17;;;;;;;9.20;2.63;;;9.30;99.90;;;;;;5033170;28;20055;-71
2021/01/30 11:34:45;;;;;;;8.05;2.92;;;9.40;99.90;;;;;;5031729;28;20056;-70
2021/01/30 11:37:11;;;;;;;10.82;2.63;;;9.60;99.90;;;;;;5034396;28;20029;-70
2021/01/30 11:39:37;;;;;;;11.27;2.15;;;9.70;99.90;;;;;;5034016;28;20157;-72
2021/01/30 11:42:04;;;;;;;12.95;2.42;;;9.50;99.90;;;;;;5040671;28;20375;-70
2021/01/30 11:44:30;;;;;;;8.63;2.25;;;9.50;99.90;;;;;;5054097;28;20035;-69
2021/01/30 11:46:56;;;;;;;8.60;2.40;;;9.60;99.90;;;;;;5054638;28;20115;-71
2021/01/30 11:49:22;;;;;;;7.55;2.08;;;9.50;99.90;;;;;;5045688;28;20725;-71
2021/01/30 11:51:49;;;;;;;7.20;1.98;;;9.50;99.90;;;;;;5033856;28;20045;-73
2021/01/30 11:54:15;;;;;;;9.35;1.80;;;9.30;99.90;;;;;;5032574;28;20025;-70
2021/01/30 11:56:41;;;;;;;11.65;2.10;;;9.30;99.90;;;;;;5034743;28;20029;-70
2021/01/30 11:59:09;;;;;;;8.48;2.10;;;9.00;99.90;;;;;;5034665;28;20024;-71
2021/01/30 12:01:34;;;;;;;8.40;1.92;;;8.90;99.90;;;;;;5033725;28;20430;-71
2021/01/30 12:04:01;;;;;;;8.85;1.88;;;8.80;99.90;;;;;;5034340;28;20041;-72
2021/01/30 12:06:26;;;;;;;8.95;2.10;;;8.70;99.90;;;;;;5034767;28;20551;-69
2021/01/30 12:08:52;;;;;;;5.90;1.42;;;8.60;99.90;;;;;;5042545;28;20097;-71
2021/01/30 12:11:18;;;;;;;5.88;1.40;;;8.60;99.90;;;;;;5041318;28;20033;-69
2021/01/30 12:13:44;;;;;;;6.65;1.30;;;8.30;99.90;;;;;;5040010;28;20025;-70
2021/01/30 12:16:10;;;;;;;6.30;1.52;;;8.10;99.90;;;;;;5040669;28;20053;-71
2021/01/30 12:18:36;;;;;;;6.47;1.13;;;8.00;99.90;;;;;;5042964;28;20018;-71
2021/01/30 12:21:03;;;;;;;4.47;2.03;;;8.10;99.90;;;;;;5048170;28;20036;-71
2021/01/30 12:23:29;;;;;;;4.80;1.70;;;8.20;99.90;;;;;;5040596;28;20025;-70
2021/01/30 12:25:54;;;;;;;6.30;1.95;;;8.20;99.90;;;;;;5023470;28;20026;-70
2021/01/30 12:28:26;;;;;;;9.60;1.80;;;8.30;99.90;;;;;;5022567;28;20391;-71
2021/01/30 12:30:52;;;;;;;7.65;1.70;;;8.30;99.90;;;;;;5032164;28;20028;-70
2021/01/30 12:33:18;;;;;;;13.13;4.82;;;8.30;99.90;;;;;;5033821;28;20025;-71
2021/01/30 12:35:44;;;;;;;6.05;1.95;;;8.20;99.90;;;;;;5034952;28;20562;-70
2021/01/30 12:38:10;;;;;;;6.53;1.42;;;8.30;99.90;;;;;;5032497;28;20388;-68
2021/01/30 12:40:39;;;;;;;5.22;1.30;;;8.20;99.90;;;;;;5033636;28;20035;-69
2021/01/30 12:43:05;;;;;;;5.82;2.05;;;8.10;99.90;;;;;;5030543;28;20072;-67
2021/01/30 12:45:32;;;;;;;5.53;1.92;;;8.00;99.90;;;;;;5032049;28;20033;-70
2021/01/30 12:47:58;;;;;;;6.07;1.50;;;8.00;99.90;;;;;;5032633;28;20388;-68
2021/01/30 12:50:27;;;;;;;6.05;1.20;;;8.10;99.90;;;;;;5032115;28;20021;-72
2021/01/30 12:52:54;;;;;;;5.85;1.88;;;8.20;99.90;;;;;;5032480;28;20037;-72
2021/01/30 12:55:20;;;;;;;3.17;1.60;;;8.30;99.90;;;;;;5035578;28;20028;-72
2021/01/30 12:57:45;;;;;;;12.70;2.30;;;8.40;99.90;;;;;;5033958;28;20025;-72
2021/01/30 13:00:23;;;;;;;7.15;2.05;;;8.50;99.90;;;;;;5032488;28;20510;-72
2021/01/30 13:02:50;;;;;;;7.28;1.50;;;8.40;99.90;;;;;;5031552;28;20129;-74
2021/01/30 13:05:18;;;;;;;6.32;1.58;;;8.50;99.90;;;;;;5030016;28;20040;-73
2021/01/30 13:07:44;;;;;;;20.77;8.35;;;8.40;99.90;;;;;;5030360;28;20079;-74
2021/01/30 13:10:12;;;;;;;6.63;2.17;;;8.40;99.90;;;;;;5031326;28;20037;-72
2021/01/30 13:12:38;;;;;;;7.45;2.40;;;8.50;99.90;;;;;;5041235;28;20021;-70
2021/01/30 13:15:05;;;;;;;5.40;1.30;;;8.50;99.90;;;;;;5050677;28;20025;-72
2021/01/30 13:17:31;;;;;;;4.47;1.05;;;8.40;99.90;;;;;;5052526;28;20128;-72
2021/01/30 13:19:56;;;;;;;4.28;1.98;;;8.20;99.90;;;;;;5055570;28;20029;-72
2021/01/30 13:22:23;;;;;;;5.80;1.77;;;8.30;99.90;;;;;;5055024;28;20035;-72